Summitville, Indiana
Current Conditions -  °F | °C
As of 7:15 PM on Thursday 18 Dec 2014 (Local Time) from KMZZ Reporting Station
Haze Haze  
Wind Chill: 20°   Ceiling: 1700
Heat Index: 26°   Visibility: 5mi
Dew Point: 23°   Wind: 5mph
Humidity: 90%   Direction: 320°NW
Pressure: 30.24"   Gusts: NA
Location:  40.34°N, 85.64°W
Report Text: KMZZ 190015Z AUTO 32004KT 5SM BR OVC017 M03/M05 A3024 RMK AO2 T10351049
Loading
Personal Weather Stations






























Interactive Weather Map New forecast layout! Learn more

10-Day Weather Forecast

Advertisements
Track Severe Weather on mobile